sensor_id;sensor_type;location;lat;lon;timestamp;temperature;humidity
66835;HTU21D;53743;51.100;5.874;2023-12-07T00:00:17;2.81;95.84
66835;HTU21D;53743;51.100;5.874;2023-12-07T00:01:19;2.80;95.84
66835;HTU21D;53743;51.100;5.874;2023-12-07T00:02:20;2.79;95.82
66835;HTU21D;53743;51.100;5.874;2023-12-07T00:03:21;2.76;95.85
66835;HTU21D;53743;51.100;5.874;2023-12-07T00:04:23;2.76;95.80
66835;HTU21D;53743;51.100;5.874;2023-12-07T00:05:25;2.74;95.74
66835;HTU21D;53743;51.100;5.874;2023-12-07T00:06:27;2.74;95.67
66835;HTU21D;53743;51.100;5.874;2023-12-07T00:07:28;2.73;95.54
66835;HTU21D;53743;51.100;5.874;2023-12-07T00:08:29;2.71;95.41
66835;HTU21D;53743;51.100;5.874;2023-12-07T00:09:31;2.69;95.36
66835;HTU21D;53743;51.100;5.874;2023-12-07T00:10:32;2.68;95.20
66835;HTU21D;53743;51.100;5.874;2023-12-07T00:11:34;2.67;95.04
66835;HTU21D;53743;51.100;5.874;2023-12-07T00:12:35;2.66;94.91
66835;HTU21D;53743;51.100;5.874;2023-12-07T00:13:38;2.64;94.94
66835;HTU21D;53743;51.100;5.874;2023-12-07T00:14:39;2.62;0.00
66835;HTU21D;53743;51.100;5.874;2023-12-07T00:15:41;2.60;94.90
66835;HTU21D;53743;51.100;5.874;2023-12-07T00:16:42;2.59;94.93
66835;HTU21D;53743;51.100;5.874;2023-12-07T00:17:43;2.59;94.92
66835;HTU21D;53743;51.100;5.874;2023-12-07T00:18:45;2.57;94.98
66835;HTU21D;53743;51.100;5.874;2023-12-07T00:19:46;2.57;95.04
66835;HTU21D;53743;51.100;5.874;2023-12-07T00:20:49;2.56;95.11
66835;HTU21D;53743;51.100;5.874;2023-12-07T00:21:50;2.55;95.16
66835;HTU21D;53743;51.100;5.874;2023-12-07T00:22:52;2.55;95.16
66835;HTU21D;53743;51.100;5.874;2023-12-07T00:23:53;0.00;95.15
66835;HTU21D;53743;51.100;5.874;2023-12-07T00:24:55;2.53;95.02
66835;HTU21D;53743;51.100;5.874;2023-12-07T00:25:56;2.51;95.07
66835;HTU21D;53743;51.100;5.874;2023-12-07T00:26:57;2.51;95.17
66835;HTU21D;53743;51.100;5.874;2023-12-07T00:27:59;2.50;95.14
66835;HTU21D;53743;51.100;5.874;2023-12-07T00:29:00;2.50;95.14
66835;HTU21D;53743;51.100;5.874;2023-12-07T00:30:01;2.49;95.11
66835;HTU21D;53743;51.100;5.874;2023-12-07T00:31:03;2.47;95.13
66835;HTU21D;53743;51.100;5.874;2023-12-07T00:32:05;2.47;95.13
66835;HTU21D;53743;51.100;5.874;2023-12-07T00:33:07;2.49;95.07
66835;HTU21D;53743;51.100;5.874;2023-12-07T00:34:08;2.46;95.00
66835;HTU21D;53743;51.100;5.874;2023-12-07T00:35:10;2.46;94.92
66835;HTU21D;53743;51.100;5.874;2023-12-07T00:36:13;2.45;0.00
66835;HTU21D;53743;51.100;5.874;2023-12-07T00:37:15;2.43;0.00
66835;HTU21D;53743;51.100;5.874;2023-12-07T00:38:17;2.42;94.58
66835;HTU21D;53743;51.100;5.874;2023-12-07T00:39:18;2.41;94.47
66835;HTU21D;53743;51.100;5.874;2023-12-07T00:40:19;2.40;94.55
66835;HTU21D;53743;51.100;5.874;2023-12-07T00:41:20;2.41;94.54
66835;HTU21D;53743;51.100;5.874;2023-12-07T00:42:22;2.40;94.49
66835;HTU21D;53743;51.100;5.874;2023-12-07T00:43:23;2.41;94.46
66835;HTU21D;53743;51.100;5.874;2023-12-07T00:44:26;2.40;94.43
66835;HTU21D;53743;51.100;5.874;2023-12-07T00:45:27;2.39;0.00
66835;HTU21D;53743;51.100;5.874;2023-12-07T00:46:29;2.40;94.51
66835;HTU21D;53743;51.100;5.874;2023-12-07T00:47:30;2.39;94.44
66835;HTU21D;53743;51.100;5.874;2023-12-07T00:48:32;2.38;94.74
66835;HTU21D;53743;51.100;5.874;2023-12-07T00:49:33;2.38;94.85
66835;HTU21D;53743;51.100;5.874;2023-12-07T00:50:34;2.39;95.02
66835;HTU21D;53743;51.100;5.874;2023-12-07T00:51:37;2.40;95.23
66835;HTU21D;53743;51.100;5.874;2023-12-07T00:52:38;2.41;95.25
66835;HTU21D;53743;51.100;5.874;2023-12-07T00:53:40;2.41;95.25
66835;HTU21D;53743;51.100;5.874;2023-12-07T00:54:41;2.40;95.27
66835;HTU21D;53743;51.100;5.874;2023-12-07T00:55:43;2.40;95.34
66835;HTU21D;53743;51.100;5.874;2023-12-07T00:56:44;2.39;95.36
66835;HTU21D;53743;51.100;5.874;2023-12-07T00:57:46;2.40;95.30
66835;HTU21D;53743;51.100;5.874;2023-12-07T00:58:47;2.39;95.37
66835;HTU21D;53743;51.100;5.874;2023-12-07T00:59:48;2.38;95.47
66835;HTU21D;53743;51.100;5.874;2023-12-07T01:00:51;2.39;95.54
66835;HTU21D;53743;51.100;5.874;2023-12-07T01:01:52;2.38;95.58
66835;HTU21D;53743;51.100;5.874;2023-12-07T01:02:54;2.39;95.59
66835;HTU21D;53743;51.100;5.874;2023-12-07T01:03:55;2.40;95.68
66835;HTU21D;53743;51.100;5.874;2023-12-07T01:04:56;2.39;95.68
66835;HTU21D;53743;51.100;5.874;2023-12-07T01:05:57;2.40;95.79
66835;HTU21D;53743;51.100;5.874;2023-12-07T01:07:01;2.41;95.74
66835;HTU21D;53743;51.100;5.874;2023-12-07T01:08:02;2.40;95.76
66835;HTU21D;53743;51.100;5.874;2023-12-07T01:09:04;2.40;95.78
66835;HTU21D;53743;51.100;5.874;2023-12-07T01:10:06;2.41;95.70
66835;HTU21D;53743;51.100;5.874;2023-12-07T01:11:09;2.40;95.60
66835;HTU21D;53743;51.100;5.874;2023-12-07T01:12:10;2.40;95.59
66835;HTU21D;53743;51.100;5.874;2023-12-07T01:13:13;2.39;95.63
66835;HTU21D;53743;51.100;5.874;2023-12-07T01:14:15;2.38;95.65
66835;HTU21D;53743;51.100;5.874;2023-12-07T01:15:16;2.38;95.73
66835;HTU21D;53743;51.100;5.874;2023-12-07T01:16:18;2.37;95.81
66835;HTU21D;53743;51.100;5.874;2023-12-07T01:17:19;2.38;95.89
66835;HTU21D;53743;51.100;5.874;2023-12-07T01:18:21;2.37;95.85
66835;HTU21D;53743;51.100;5.874;2023-12-07T01:19:22;2.36;95.83
66835;HTU21D;53743;51.100;5.874;2023-12-07T01:20:25;2.34;96.24
66835;HTU21D;53743;51.100;5.874;2023-12-07T01:21:26;2.34;96.18
66835;HTU21D;53743;51.100;5.874;2023-12-07T01:22:30;2.35;96.28
66835;HTU21D;53743;51.100;5.874;2023-12-07T01:23:31;2.36;96.47
66835;HTU21D;53743;51.100;5.874;2023-12-07T01:24:33;2.36;96.49
66835;HTU21D;53743;51.100;5.874;2023-12-07T01:25:34;2.36;96.65
66835;HTU21D;53743;51.100;5.874;2023-12-07T01:26:36;2.37;96.81
66835;HTU21D;53743;51.100;5.874;2023-12-07T01:27:37;2.41;97.10
66835;HTU21D;53743;51.100;5.874;2023-12-07T01:28:39;2.46;97.36
66835;HTU21D;53743;51.100;5.874;2023-12-07T01:29:40;2.54;97.50
66835;HTU21D;53743;51.100;5.874;2023-12-07T01:30:41;2.58;97.69
66835;HTU21D;53743;51.100;5.874;2023-12-07T01:31:43;2.64;97.86
66835;HTU21D;53743;51.100;5.874;2023-12-07T01:32:44;2.70;98.10
66835;HTU21D;53743;51.100;5.874;2023-12-07T01:33:45;2.76;98.24
66835;HTU21D;53743;51.100;5.874;2023-12-07T01:34:47;2.83;98.32
66835;HTU21D;53743;51.100;5.874;2023-12-07T01:35:48;2.88;98.48
66835;HTU21D;53743;51.100;5.874;2023-12-07T01:36:50;2.96;98.42
66835;HTU21D;53743;51.100;5.874;2023-12-07T01:37:52;3.01;98.40
66835;HTU21D;53743;51.100;5.874;2023-12-07T01:38:54;3.06;98.45
66835;HTU21D;53743;51.100;5.874;2023-12-07T01:39:55;3.08;98.42
66835;HTU21D;53743;51.100;5.874;2023-12-07T01:40:57;3.13;98.43
66835;HTU21D;53743;51.100;5.874;2023-12-07T01:41:58;3.18;98.41
66835;HTU21D;53743;51.100;5.874;2023-12-07T01:42:59;3.21;98.29
66835;HTU21D;53743;51.100;5.874;2023-12-07T01:44:01;3.26;98.31
66835;HTU21D;53743;51.100;5.874;2023-12-07T01:45:04;3.30;98.29
66835;HTU21D;53743;51.100;5.874;2023-12-07T01:46:06;3.34;98.13
66835;HTU21D;53743;51.100;5.874;2023-12-07T01:47:08;3.39;98.25
66835;HTU21D;53743;51.100;5.874;2023-12-07T01:48:11;3.40;98.32
66835;HTU21D;53743;51.100;5.874;2023-12-07T01:49:13;3.32;98.35
66835;HTU21D;53743;51.100;5.874;2023-12-07T01:50:14;3.34;98.30
66835;HTU21D;53743;51.100;5.874;2023-12-07T01:51:18;3.32;98.24
66835;HTU21D;53743;51.100;5.874;2023-12-07T01:52:22;3.29;98.22
66835;HTU21D;53743;51.100;5.874;2023-12-07T01:53:28;3.31;98.38
66835;HTU21D;53743;51.100;5.874;2023-12-07T01:54:31;3.32;98.29
66835;HTU21D;53743;51.100;5.874;2023-12-07T01:55:34;3.33;98.36
66835;HTU21D;53743;51.100;5.874;2023-12-07T01:56:36;3.35;98.42
66835;HTU21D;53743;51.100;5.874;2023-12-07T01:57:40;3.38;98.34
66835;HTU21D;53743;51.100;5.874;2023-12-07T01:58:42;3.40;98.42
66835;HTU21D;53743;51.100;5.874;2023-12-07T01:59:45;3.41;98.36
66835;HTU21D;53743;51.100;5.874;2023-12-07T02:00:47;3.43;98.32
66835;HTU21D;53743;51.100;5.874;2023-12-07T02:01:50;3.47;98.13
66835;HTU21D;53743;51.100;5.874;2023-12-07T02:02:51;3.45;97.98
66835;HTU21D;53743;51.100;5.874;2023-12-07T02:03:53;3.45;98.00
66835;HTU21D;53743;51.100;5.874;2023-12-07T02:04:55;3.45;98.00
66835;HTU21D;53743;51.100;5.874;2023-12-07T02:05:59;3.43;98.10
66835;HTU21D;53743;51.100;5.874;2023-12-07T02:07:02;3.44;97.94
66835;HTU21D;53743;51.100;5.874;2023-12-07T02:08:06;3.43;97.85
66835;HTU21D;53743;51.100;5.874;2023-12-07T02:09:08;3.44;98.03
66835;HTU21D;53743;51.100;5.874;2023-12-07T02:10:10;3.44;98.16
66835;HTU21D;53743;51.100;5.874;2023-12-07T02:11:13;0.00;98.23
66835;HTU21D;53743;51.100;5.874;2023-12-07T02:12:14;3.47;98.31
66835;HTU21D;53743;51.100;5.874;2023-12-07T02:14:34;3.50;97.79
66835;HTU21D;53743;51.100;5.874;2023-12-07T02:15:37;3.54;97.85
66835;HTU21D;53743;51.100;5.874;2023-12-07T02:16:43;3.54;97.61
66835;HTU21D;53743;51.100;5.874;2023-12-07T02:17:58;3.57;97.58
66835;HTU21D;53743;51.100;5.874;2023-12-07T02:19:24;3.57;97.44
66835;HTU21D;53743;51.100;5.874;2023-12-07T02:20:57;3.58;97.53
66835;HTU21D;53743;51.100;5.874;2023-12-07T02:22:12;3.59;97.55
66835;HTU21D;53743;51.100;5.874;2023-12-07T02:23:19;3.60;97.37
66835;HTU21D;53743;51.100;5.874;2023-12-07T02:24:27;3.62;97.52
66835;HTU21D;53743;51.100;5.874;2023-12-07T02:25:37;3.62;97.16
66835;HTU21D;53743;51.100;5.874;2023-12-07T02:26:47;3.62;96.97
66835;HTU21D;53743;51.100;5.874;2023-12-07T02:27:49;3.62;96.90
66835;HTU21D;53743;51.100;5.874;2023-12-07T02:28:50;3.61;96.88
66835;HTU21D;53743;51.100;5.874;2023-12-07T02:29:52;3.61;97.06
66835;HTU21D;53743;51.100;5.874;2023-12-07T02:30:53;3.60;96.78
66835;HTU21D;53743;51.100;5.874;2023-12-07T02:31:56;3.61;96.68
66835;HTU21D;53743;51.100;5.874;2023-12-07T02:32:57;3.62;96.64
66835;HTU21D;53743;51.100;5.874;2023-12-07T02:33:59;3.62;96.84
66835;HTU21D;53743;51.100;5.874;2023-12-07T02:35:00;3.65;96.62
66835;HTU21D;53743;51.100;5.874;2023-12-07T02:36:04;3.64;96.70
66835;HTU21D;53743;51.100;5.874;2023-12-07T02:37:06;3.64;96.76
66835;HTU21D;53743;51.100;5.874;2023-12-07T02:38:11;3.63;96.74
66835;HTU21D;53743;51.100;5.874;2023-12-07T02:39:13;3.65;96.85
66835;HTU21D;53743;51.100;5.874;2023-12-07T02:40:21;3.65;96.73
66835;HTU21D;53743;51.100;5.874;2023-12-07T02:41:26;3.69;96.84
66835;HTU21D;53743;51.100;5.874;2023-12-07T02:42:29;3.63;95.81
66835;HTU21D;53743;51.100;5.874;2023-12-07T02:43:33;3.60;96.66
66835;HTU21D;53743;51.100;5.874;2023-12-07T02:44:35;3.55;96.65
66835;HTU21D;53743;51.100;5.874;2023-12-07T02:45:38;3.52;96.82
66835;HTU21D;53743;51.100;5.874;2023-12-07T02:46:40;0.00;96.81
66835;HTU21D;53743;51.100;5.874;2023-12-07T02:47:42;3.47;96.62
66835;HTU21D;53743;51.100;5.874;2023-12-07T02:48:43;3.43;97.02
66835;HTU21D;53743;51.100;5.874;2023-12-07T02:49:45;3.33;97.08
66835;HTU21D;53743;51.100;5.874;2023-12-07T02:50:46;3.34;97.71
66835;HTU21D;53743;51.100;5.874;2023-12-07T02:51:48;3.31;97.23
66835;HTU21D;53743;51.100;5.874;2023-12-07T02:52:49;3.29;97.92
66835;HTU21D;53743;51.100;5.874;2023-12-07T02:53:52;3.28;97.89
66835;HTU21D;53743;51.100;5.874;2023-12-07T02:54:53;3.20;98.29
66835;HTU21D;53743;51.100;5.874;2023-12-07T02:55:55;3.21;98.40
66835;HTU21D;53743;51.100;5.874;2023-12-07T02:56:56;3.24;98.21
66835;HTU21D;53743;51.100;5.874;2023-12-07T02:57:59;3.25;98.39
66835;HTU21D;53743;51.100;5.874;2023-12-07T02:59:00;3.28;98.29
66835;HTU21D;53743;51.100;5.874;2023-12-07T03:00:03;3.30;98.23
66835;HTU21D;53743;51.100;5.874;2023-12-07T03:01:06;3.34;98.32
66835;HTU21D;53743;51.100;5.874;2023-12-07T03:02:08;3.36;98.21
66835;HTU21D;53743;51.100;5.874;2023-12-07T03:03:09;3.38;98.44
66835;HTU21D;53743;51.100;5.874;2023-12-07T03:04:11;3.41;98.49
66835;HTU21D;53743;51.100;5.874;2023-12-07T03:05:12;3.44;98.38
66835;HTU21D;53743;51.100;5.874;2023-12-07T03:06:14;3.46;98.29
66835;HTU21D;53743;51.100;5.874;2023-12-07T03:07:16;3.43;98.39
66835;HTU21D;53743;51.100;5.874;2023-12-07T03:08:18;3.42;98.54
66835;HTU21D;53743;51.100;5.874;2023-12-07T03:09:19;3.46;98.33
66835;HTU21D;53743;51.100;5.874;2023-12-07T03:10:20;3.46;98.43
66835;HTU21D;53743;51.100;5.874;2023-12-07T03:11:23;3.43;98.55
66835;HTU21D;53743;51.100;5.874;2023-12-07T03:12:24;3.45;98.33
66835;HTU21D;53743;51.100;5.874;2023-12-07T03:13:27;3.47;98.62
66835;HTU21D;53743;51.100;5.874;2023-12-07T03:14:29;3.49;98.57
66835;HTU21D;53743;51.100;5.874;2023-12-07T03:15:30;3.55;98.61
66835;HTU21D;53743;51.100;5.874;2023-12-07T03:16:32;3.58;98.65
66835;HTU21D;53743;51.100;5.874;2023-12-07T03:17:33;3.61;98.71
66835;HTU21D;53743;51.100;5.874;2023-12-07T03:18:35;3.65;98.68
66835;HTU21D;53743;51.100;5.874;2023-12-07T03:19:37;3.71;98.64
66835;HTU21D;53743;51.100;5.874;2023-12-07T03:20:40;3.74;98.42
66835;HTU21D;53743;51.100;5.874;2023-12-07T03:21:42;3.79;98.36
66835;HTU21D;53743;51.100;5.874;2023-12-07T03:22:44;3.84;98.17
66835;HTU21D;53743;51.100;5.874;2023-12-07T03:23:45;3.85;97.90
66835;HTU21D;53743;51.100;5.874;2023-12-07T03:24:50;3.87;97.92
66835;HTU21D;53743;51.100;5.874;2023-12-07T03:25:52;3.90;97.86
66835;HTU21D;53743;51.100;5.874;2023-12-07T03:26:54;3.92;97.94
66835;HTU21D;53743;51.100;5.874;2023-12-07T03:27:55;3.94;97.79
66835;HTU21D;53743;51.100;5.874;2023-12-07T03:28:59;3.97;97.78
66835;HTU21D;53743;51.100;5.874;2023-12-07T03:30:00;4.01;97.71
66835;HTU21D;53743;51.100;5.874;2023-12-07T03:31:03;4.03;97.65
66835;HTU21D;53743;51.100;5.874;2023-12-07T03:32:05;4.03;97.64
66835;HTU21D;53743;51.100;5.874;2023-12-07T03:33:07;4.03;97.60
66835;HTU21D;53743;51.100;5.874;2023-12-07T03:34:08;4.04;97.47
66835;HTU21D;53743;51.100;5.874;2023-12-07T03:35:10;4.05;97.49
66835;HTU21D;53743;51.100;5.874;2023-12-07T03:36:11;4.10;97.68
66835;HTU21D;53743;51.100;5.874;2023-12-07T03:37:12;4.14;97.36
66835;HTU21D;53743;51.100;5.874;2023-12-07T03:38:14;4.16;97.35
66835;HTU21D;53743;51.100;5.874;2023-12-07T03:39:17;4.16;97.42
66835;HTU21D;53743;51.100;5.874;2023-12-07T03:40:22;4.19;97.35
66835;HTU21D;53743;51.100;5.874;2023-12-07T03:41:23;4.20;97.29
66835;HTU21D;53743;51.100;5.874;2023-12-07T03:42:24;4.22;97.16
66835;HTU21D;53743;51.100;5.874;2023-12-07T03:43:26;4.22;97.12
66835;HTU21D;53743;51.100;5.874;2023-12-07T03:44:28;4.24;97.11
66835;HTU21D;53743;51.100;5.874;2023-12-07T03:45:29;4.27;96.92
66835;HTU21D;53743;51.100;5.874;2023-12-07T03:46:31;4.28;96.99
66835;HTU21D;53743;51.100;5.874;2023-12-07T03:47:32;4.31;96.78
66835;HTU21D;53743;51.100;5.874;2023-12-07T03:48:34;4.32;96.74
66835;HTU21D;53743;51.100;5.874;2023-12-07T03:49:35;4.33;96.76
66835;HTU21D;53743;51.100;5.874;2023-12-07T03:50:36;4.36;96.77
66835;HTU21D;53743;51.100;5.874;2023-12-07T03:51:38;4.36;96.78
66835;HTU21D;53743;51.100;5.874;2023-12-07T03:52:39;4.39;96.68
66835;HTU21D;53743;51.100;5.874;2023-12-07T03:53:42;4.41;96.81
66835;HTU21D;53743;51.100;5.874;2023-12-07T03:54:43;4.42;96.58
66835;HTU21D;53743;51.100;5.874;2023-12-07T03:55:45;4.42;96.61
66835;HTU21D;53743;51.100;5.874;2023-12-07T03:56:46;4.43;96.56
66835;HTU21D;53743;51.100;5.874;2023-12-07T03:57:48;4.43;96.55
66835;HTU21D;53743;51.100;5.874;2023-12-07T03:58:49;4.44;96.57
66835;HTU21D;53743;51.100;5.874;2023-12-07T03:59:51;4.48;96.74
66835;HTU21D;53743;51.100;5.874;2023-12-07T04:00:54;4.47;96.30
66835;HTU21D;53743;51.100;5.874;2023-12-07T04:01:55;4.47;96.38
66835;HTU21D;53743;51.100;5.874;2023-12-07T04:02:57;4.48;96.58
66835;HTU21D;53743;51.100;5.874;2023-12-07T04:03:58;4.49;96.33
66835;HTU21D;53743;51.100;5.874;2023-12-07T04:05:01;4.50;96.25
66835;HTU21D;53743;51.100;5.874;2023-12-07T04:06:03;4.49;96.17
66835;HTU21D;53743;51.100;5.874;2023-12-07T04:07:05;4.48;96.04
66835;HTU21D;53743;51.100;5.874;2023-12-07T04:08:06;4.48;96.23
66835;HTU21D;53743;51.100;5.874;2023-12-07T04:09:07;4.47;96.13
66835;HTU21D;53743;51.100;5.874;2023-12-07T04:10:10;4.49;96.15
66835;HTU21D;53743;51.100;5.874;2023-12-07T04:11:11;4.50;96.07
66835;HTU21D;53743;51.100;5.874;2023-12-07T04:12:13;4.47;96.16
66835;HTU21D;53743;51.100;5.874;2023-12-07T04:13:14;4.44;96.05
66835;HTU21D;53743;51.100;5.874;2023-12-07T04:14:16;4.45;95.84
66835;HTU21D;53743;51.100;5.874;2023-12-07T04:15:19;4.43;95.84
66835;HTU21D;53743;51.100;5.874;2023-12-07T04:16:21;4.39;95.89
66835;HTU21D;53743;51.100;5.874;2023-12-07T04:17:22;4.39;96.14
66835;HTU21D;53743;51.100;5.874;2023-12-07T04:18:24;4.34;95.95
66835;HTU21D;53743;51.100;5.874;2023-12-07T04:19:25;4.34;96.18
66835;HTU21D;53743;51.100;5.874;2023-12-07T04:20:27;4.33;96.19
66835;HTU21D;53743;51.100;5.874;2023-12-07T04:21:29;4.31;96.42
66835;HTU21D;53743;51.100;5.874;2023-12-07T04:22:31;4.28;96.49
66835;HTU21D;53743;51.100;5.874;2023-12-07T04:23:32;4.30;96.71
66835;HTU21D;53743;51.100;5.874;2023-12-07T04:24:34;4.30;96.43
66835;HTU21D;53743;51.100;5.874;2023-12-07T04:25:35;4.30;96.58
66835;HTU21D;53743;51.100;5.874;2023-12-07T04:26:37;4.31;96.65
66835;HTU21D;53743;51.100;5.874;2023-12-07T04:27:38;4.29;96.47
66835;HTU21D;53743;51.100;5.874;2023-12-07T04:28:40;4.30;96.70
66835;HTU21D;53743;51.100;5.874;2023-12-07T04:29:41;4.28;96.55
66835;HTU21D;53743;51.100;5.874;2023-12-07T04:30:44;4.29;96.54
66835;HTU21D;53743;51.100;5.874;2023-12-07T04:31:46;4.24;96.72
66835;HTU21D;53743;51.100;5.874;2023-12-07T04:32:47;4.24;96.91
66835;HTU21D;53743;51.100;5.874;2023-12-07T04:33:49;4.22;96.71
66835;HTU21D;53743;51.100;5.874;2023-12-07T04:34:50;4.18;96.69
66835;HTU21D;53743;51.100;5.874;2023-12-07T04:35:52;4.15;96.99
66835;HTU21D;53743;51.100;5.874;2023-12-07T04:36:52;4.19;96.95
66835;HTU21D;53743;51.100;5.874;2023-12-07T04:37:54;4.18;96.78
66835;HTU21D;53743;51.100;5.874;2023-12-07T04:38:55;4.19;96.39
66835;HTU21D;53743;51.100;5.874;2023-12-07T04:39:57;4.17;96.43
66835;HTU21D;53743;51.100;5.874;2023-12-07T04:40:59;4.10;96.85
66835;HTU21D;53743;51.100;5.874;2023-12-07T04:42:00;4.17;96.60
66835;HTU21D;53743;51.100;5.874;2023-12-07T04:43:02;4.13;96.44
66835;HTU21D;53743;51.100;5.874;2023-12-07T04:44:03;4.10;96.62
66835;HTU21D;53743;51.100;5.874;2023-12-07T04:45:06;4.09;96.71
66835;HTU21D;53743;51.100;5.874;2023-12-07T04:46:09;4.08;96.75
66835;HTU21D;53743;51.100;5.874;2023-12-07T04:47:12;4.09;97.00
66835;HTU21D;53743;51.100;5.874;2023-12-07T04:48:13;4.08;96.53
66835;HTU21D;53743;51.100;5.874;2023-12-07T04:49:15;4.04;96.95
66835;HTU21D;53743;51.100;5.874;2023-12-07T04:50:16;4.04;97.18
66835;HTU21D;53743;51.100;5.874;2023-12-07T04:51:17;4.04;97.32
66835;HTU21D;53743;51.100;5.874;2023-12-07T04:52:19;4.04;97.17
66835;HTU21D;53743;51.100;5.874;2023-12-07T04:53:21;4.03;97.61
66835;HTU21D;53743;51.100;5.874;2023-12-07T04:54:22;4.06;97.84
66835;HTU21D;53743;51.100;5.874;2023-12-07T04:55:24;4.07;97.36
66835;HTU21D;53743;51.100;5.874;2023-12-07T04:56:25;4.10;97.50
66835;HTU21D;53743;51.100;5.874;2023-12-07T04:57:27;4.13;97.19
66835;HTU21D;53743;51.100;5.874;2023-12-07T04:58:28;4.12;97.13
66835;HTU21D;53743;51.100;5.874;2023-12-07T04:59:30;4.12;97.32
66835;HTU21D;53743;51.100;5.874;2023-12-07T05:00:31;4.13;97.44
66835;HTU21D;53743;51.100;5.874;2023-12-07T05:01:34;4.16;97.44
66835;HTU21D;53743;51.100;5.874;2023-12-07T05:02:36;4.18;97.52
66835;HTU21D;53743;51.100;5.874;2023-12-07T05:03:38;4.20;97.44
66835;HTU21D;53743;51.100;5.874;2023-12-07T05:04:40;4.22;97.42
66835;HTU21D;53743;51.100;5.874;2023-12-07T05:05:40;4.27;96.82
66835;HTU21D;53743;51.100;5.874;2023-12-07T05:06:43;4.24;96.63
66835;HTU21D;53743;51.100;5.874;2023-12-07T05:07:44;4.22;96.78
66835;HTU21D;53743;51.100;5.874;2023-12-07T05:08:46;4.26;97.03
66835;HTU21D;53743;51.100;5.874;2023-12-07T05:09:47;4.27;96.80
66835;HTU21D;53743;51.100;5.874;2023-12-07T05:10:51;4.27;96.89
66835;HTU21D;53743;51.100;5.874;2023-12-07T05:11:52;4.17;96.07
66835;HTU21D;53743;51.100;5.874;2023-12-07T05:12:53;4.12;97.13
66835;HTU21D;53743;51.100;5.874;2023-12-07T05:13:56;4.16;97.30
66835;HTU21D;53743;51.100;5.874;2023-12-07T05:14:58;4.16;96.92
66835;HTU21D;53743;51.100;5.874;2023-12-07T05:16:00;4.19;96.81
66835;HTU21D;53743;51.100;5.874;2023-12-07T05:17:02;4.19;97.00
66835;HTU21D;53743;51.100;5.874;2023-12-07T05:18:05;4.20;96.86
66835;HTU21D;53743;51.100;5.874;2023-12-07T05:19:06;4.20;96.77
66835;HTU21D;53743;51.100;5.874;2023-12-07T05:20:09;4.20;96.94
66835;HTU21D;53743;51.100;5.874;2023-12-07T05:21:13;4.21;96.82
66835;HTU21D;53743;51.100;5.874;2023-12-07T05:22:15;4.20;96.76
66835;HTU21D;53743;51.100;5.874;2023-12-07T05:23:16;4.17;97.10
66835;HTU21D;53743;51.100;5.874;2023-12-07T05:24:19;4.20;97.03
66835;HTU21D;53743;51.100;5.874;2023-12-07T05:25:20;4.21;97.03
66835;HTU21D;53743;51.100;5.874;2023-12-07T05:26:22;4.23;96.94
66835;HTU21D;53743;51.100;5.874;2023-12-07T05:27:23;4.24;97.00
66835;HTU21D;53743;51.100;5.874;2023-12-07T05:28:25;4.24;96.94
66835;HTU21D;53743;51.100;5.874;2023-12-07T05:29:26;4.26;96.97
66835;HTU21D;53743;51.100;5.874;2023-12-07T05:30:28;4.29;97.00
66835;HTU21D;53743;51.100;5.874;2023-12-07T05:31:30;4.30;96.91
66835;HTU21D;53743;51.100;5.874;2023-12-07T05:32:33;4.32;96.97
66835;HTU21D;53743;51.100;5.874;2023-12-07T05:33:34;4.36;96.97
66835;HTU21D;53743;51.100;5.874;2023-12-07T05:34:36;4.37;96.97
66835;HTU21D;53743;51.100;5.874;2023-12-07T05:35:37;4.41;96.97
66835;HTU21D;53743;51.100;5.874;2023-12-07T05:36:39;4.43;96.98
66835;HTU21D;53743;51.100;5.874;2023-12-07T05:37:41;4.43;97.01
66835;HTU21D;53743;51.100;5.874;2023-12-07T05:38:42;4.46;96.92
66835;HTU21D;53743;51.100;5.874;2023-12-07T05:39:44;4.47;97.00
66835;HTU21D;53743;51.100;5.874;2023-12-07T05:40:45;4.49;96.92
66835;HTU21D;53743;51.100;5.874;2023-12-07T05:41:47;4.51;96.94
66835;HTU21D;53743;51.100;5.874;2023-12-07T05:42:49;4.54;96.88
66835;HTU21D;53743;51.100;5.874;2023-12-07T05:43:52;4.56;96.93
66835;HTU21D;53743;51.100;5.874;2023-12-07T05:44:53;4.59;96.69
66835;HTU21D;53743;51.100;5.874;2023-12-07T05:45:55;4.61;96.58
66835;HTU21D;53743;51.100;5.874;2023-12-07T05:46:56;4.62;96.62
66835;HTU21D;53743;51.100;5.874;2023-12-07T05:48:00;4.66;96.52
66835;HTU21D;53743;51.100;5.874;2023-12-07T05:49:01;4.66;96.47
66835;HTU21D;53743;51.100;5.874;2023-12-07T05:50:02;4.68;96.36
66835;HTU21D;53743;51.100;5.874;2023-12-07T05:51:05;4.69;96.31
66835;HTU21D;53743;51.100;5.874;2023-12-07T05:52:07;4.71;96.30
66835;HTU21D;53743;51.100;5.874;2023-12-07T05:53:09;4.73;96.19
66835;HTU21D;53743;51.100;5.874;2023-12-07T05:54:10;4.75;96.08
66835;HTU21D;53743;51.100;5.874;2023-12-07T05:55:11;4.76;96.01
66835;HTU21D;53743;51.100;5.874;2023-12-07T05:56:18;4.79;96.07
66835;HTU21D;53743;51.100;5.874;2023-12-07T05:57:19;4.81;95.84
66835;HTU21D;53743;51.100;5.874;2023-12-07T05:58:21;4.82;95.81
66835;HTU21D;53743;51.100;5.874;2023-12-07T05:59:22;4.83;95.78
66835;HTU21D;53743;51.100;5.874;2023-12-07T06:00:24;4.86;95.68
66835;HTU21D;53743;51.100;5.874;2023-12-07T06:01:26;4.86;95.55
66835;HTU21D;53743;51.100;5.874;2023-12-07T06:02:27;4.87;95.62
66835;HTU21D;53743;51.100;5.874;2023-12-07T06:03:30;4.86;95.40
66835;HTU21D;53743;51.100;5.874;2023-12-07T06:04:32;4.84;95.49
66835;HTU21D;53743;51.100;5.874;2023-12-07T06:05:33;4.82;95.25
66835;HTU21D;53743;51.100;5.874;2023-12-07T06:06:35;4.80;95.39
66835;HTU21D;53743;51.100;5.874;2023-12-07T06:07:37;4.79;95.39
66835;HTU21D;53743;51.100;5.874;2023-12-07T06:08:39;4.81;95.55
66835;HTU21D;53743;51.100;5.874;2023-12-07T06:09:40;4.81;95.58
66835;HTU21D;53743;51.100;5.874;2023-12-07T06:10:42;4.83;95.63
66835;HTU21D;53743;51.100;5.874;2023-12-07T06:11:44;4.84;95.62
66835;HTU21D;53743;51.100;5.874;2023-12-07T06:12:45;4.87;95.53
66835;HTU21D;53743;51.100;5.874;2023-12-07T06:13:47;4.83;95.40
66835;HTU21D;53743;51.100;5.874;2023-12-07T06:14:48;4.80;94.48
66835;HTU21D;53743;51.100;5.874;2023-12-07T06:15:50;4.80;95.00
66835;HTU21D;53743;51.100;5.874;2023-12-07T06:16:51;4.74;95.23
66835;HTU21D;53743;51.100;5.874;2023-12-07T06:17:54;4.73;95.57
66835;HTU21D;53743;51.100;5.874;2023-12-07T06:18:56;4.68;95.23
66835;HTU21D;53743;51.100;5.874;2023-12-07T06:19:59;4.69;95.41
66835;HTU21D;53743;51.100;5.874;2023-12-07T06:21:00;4.68;95.75
66835;HTU21D;53743;51.100;5.874;2023-12-07T06:22:01;4.68;95.97
66835;HTU21D;53743;51.100;5.874;2023-12-07T06:23:03;4.72;96.03
66835;HTU21D;53743;51.100;5.874;2023-12-07T06:24:05;4.76;96.13
66835;HTU21D;53743;51.100;5.874;2023-12-07T06:25:07;4.79;96.09
66835;HTU21D;53743;51.100;5.874;2023-12-07T06:26:09;4.81;96.07
66835;HTU21D;53743;51.100;5.874;2023-12-07T06:27:10;4.84;95.87
66835;HTU21D;53743;51.100;5.874;2023-12-07T06:28:12;4.86;95.88
66835;HTU21D;53743;51.100;5.874;2023-12-07T06:29:13;4.89;95.83
66835;HTU21D;53743;51.100;5.874;2023-12-07T06:30:15;4.91;95.85
66835;HTU21D;53743;51.100;5.874;2023-12-07T06:31:16;4.93;95.72
66835;HTU21D;53743;51.100;5.874;2023-12-07T06:32:20;4.96;95.59
66835;HTU21D;53743;51.100;5.874;2023-12-07T06:33:21;4.98;95.47